Cutler Ridge, Florida
Current Conditions -  °F | °C
As of 12:53 PM on Friday 28 Nov 2014 (Local Time) from KTMB Reporting Station
Clear Clear  
Wind Chill: 69°   Ceiling: Unl
Heat Index: 69°   Visibility: 10mi
Dew Point: 50°   Wind: 13mph
Humidity: 51%   Direction: 10°N
Pressure: 30.19"   Gusts: 21mph
Location:  25.59°N, 80.38°W
Report Text: KTMB 281753Z 01011G18KT 10SM CLR 21/10 A3019 RMK AO2 SLP223 T02060100 10206 20111 58022
Loading
Personal Weather Stations






























Interactive Weather Map New forecast layout! Learn more

10-Day Weather Forecast

Advertisements
Track Severe Weather on mobile